Time;durP1;ratioP1;P1;durP2;ratioP2;P2;SDS_P1;SDS_P2;PMS_P1;PMS_P2;Temp;Humidity;BMP_temperature;BMP_pressure;BME280_temperature;BME280_humidity;BME280_pressure;Samples;Min_cycle;Max_cycle;Signal;HPM_P1;HPM_P2
2023/07/27 00:00:15;;;;;;;4.83;2.77;;;;;;;15.62;100.00;100244.72;683218;28;1509;-64
2023/07/27 00:00:37;;;;;;;5.55;2.92;;;;;;;15.63;100.00;100246.44;682578;28;2158;-63
2023/07/27 00:00:57;;;;;;;4.90;2.80;;;;;;;15.64;100.00;100250.78;684268;28;4502;-63
2023/07/27 00:01:17;;;;;;;4.47;2.90;;;;;;;15.63;100.00;100246.44;684431;28;1914;-64
2023/07/27 00:01:38;;;;;;;4.70;2.73;;;;;;;15.63;100.00;100248.19;685270;28;916;-63
2023/07/27 00:01:58;;;;;;;5.22;2.75;;;;;;;15.62;100.00;100249.13;686961;28;1398;-63
2023/07/27 00:02:18;;;;;;;4.80;2.80;;;;;;;15.62;100.00;100246.50;684127;28;1477;-64
2023/07/27 00:02:39;;;;;;;4.40;2.80;;;;;;;15.62;100.00;100247.34;686562;28;1413;-63
2023/07/27 00:03:00;;;;;;;4.10;2.80;;;;;;;15.59;100.00;100251.84;687878;28;1404;-63
2023/07/27 00:03:21;;;;;;;4.68;2.60;;;;;;;15.60;100.00;100248.28;686986;28;2022;-63
2023/07/27 00:03:41;;;;;;;4.13;2.60;;;;;;;15.59;100.00;100243.94;687436;28;1034;-63
2023/07/27 00:04:02;;;;;;;5.00;2.80;;;;;;;15.59;100.00;100246.56;687650;28;4331;-63
2023/07/27 00:04:22;;;;;;;5.25;2.90;;;;;;;15.59;100.00;100246.56;686970;28;1674;-63
2023/07/27 00:04:43;;;;;;;5.93;2.92;;;;;;;15.58;100.00;100244.88;687574;28;1603;-63
2023/07/27 00:05:03;;;;;;;4.60;2.90;;;;;;;15.58;100.00;100244.88;688057;28;924;-63
2023/07/27 00:05:24;;;;;;;5.20;3.05;;;;;;;15.57;100.00;100246.63;686370;28;1537;-63
2023/07/27 00:05:45;;;;;;;5.47;3.20;;;;;;;15.57;100.00;100246.63;687075;28;925;-63
2023/07/27 00:06:05;;;;;;;5.47;2.90;;;;;;;15.63;100.00;100243.81;688117;28;1342;-64
2023/07/27 00:06:25;;;;;;;6.82;2.90;;;;;;;15.63;100.00;100246.44;682888;28;1051;-64
2023/07/27 00:06:46;;;;;;;5.20;2.90;;;;;;;15.62;100.00;100235.94;683755;28;881;-62
2023/07/27 00:07:07;;;;;;;4.88;3.00;;;;;;;15.61;100.00;100245.59;681932;28;4661;-62
2023/07/27 00:07:27;;;;;;;5.53;3.00;;;;;;;15.58;100.00;100244.88;684191;28;964;-63
2023/07/27 00:07:48;;;;;;;4.45;2.80;;;;;;;15.57;100.00;100243.13;683073;28;1405;-63
2023/07/27 00:08:08;;;;;;;4.53;2.77;;;;;;;15.56;100.00;100242.28;682361;28;1584;-63
2023/07/27 00:08:29;;;;;;;5.05;2.97;;;;;;;15.55;100.00;100243.19;687494;28;799;-63
2023/07/27 00:08:50;;;;;;;5.88;3.00;;;;;;;15.55;100.00;100244.94;686691;28;1007;-63
2023/07/27 00:09:10;;;;;;;4.70;2.60;;;;;;;15.54;100.00;100249.34;685875;28;1488;-63
2023/07/27 00:09:30;;;;;;;4.80;2.80;;;;;;;15.54;100.00;100245.88;688190;28;1287;-64
2023/07/27 00:09:51;;;;;;;5.60;2.90;;;;;;;15.53;100.00;100241.50;686944;28;4548;-64
2023/07/27 00:10:11;;;;;;;4.90;2.95;;;;;;;15.52;100.00;100240.66;687260;28;1501;-63
2023/07/27 00:10:31;;;;;;;5.77;2.80;;;;;;;15.53;100.00;100238.88;687263;28;797;-64
2023/07/27 00:10:53;;;;;;;5.80;2.80;;;;;;;15.59;100.00;100239.53;687087;28;1070;-64
2023/07/27 00:11:15;;;;;;;4.55;2.70;;;;;;;15.66;100.00;100243.69;686877;28;1565;-63
2023/07/27 00:11:35;;;;;;;5.00;2.60;;;;;;;15.64;100.00;100239.38;688401;28;864;-63
2023/07/27 00:11:56;;;;;;;5.73;2.87;;;;;;;15.63;100.00;100238.53;687685;28;881;-63
2023/07/27 00:12:16;;;;;;;5.10;2.92;;;;;;;15.63;100.00;100237.66;686439;28;974;-63
2023/07/27 00:12:36;;;;;;;4.40;2.80;;;;;;;15.61;100.00;100237.72;687750;28;1190;-63
2023/07/27 00:12:57;;;;;;;4.43;2.80;;;;;;;15.61;100.00;100240.34;685039;28;4349;-63
2023/07/27 00:13:20;;;;;;;4.50;2.80;;;;;;;15.63;100.00;100240.28;686212;28;1581;-64
2023/07/27 00:13:40;;;;;;;5.30;2.80;;;;;;;15.69;100.00;100242.75;687912;28;1265;-64
2023/07/27 00:14:00;;;;;;;4.57;2.90;;;;;;;15.66;100.00;100238.44;688023;28;893;-63
2023/07/27 00:14:21;;;;;;;4.32;2.90;;;;;;;15.66;100.00;100242.84;686330;28;1579;-63
2023/07/27 00:14:41;;;;;;;4.60;2.60;;;;;;;15.64;100.00;100245.50;686886;28;947;-62
2023/07/27 00:15:02;;;;;;;4.87;2.70;;;;;;;15.62;100.00;100235.94;687865;28;762;-62
2023/07/27 00:15:23;;;;;;;4.70;2.93;;;;;;;15.57;100.00;100241.34;683732;28;1556;-63
2023/07/27 00:15:43;;;;;;;4.38;3.17;;;;;;;15.57;100.00;100238.72;683680;28;929;-63
2023/07/27 00:16:04;;;;;;;4.83;2.97;;;;;;;15.56;100.00;100242.28;686619;28;4406;-63
2023/07/27 00:16:24;;;;;;;4.82;2.88;;;;;;;15.56;100.00;100238.78;686143;28;3058;-63
2023/07/27 00:16:45;;;;;;;4.40;2.90;;;;;;;15.57;100.00;100237.88;687438;28;859;-63
2023/07/27 00:17:05;;;;;;;4.95;2.80;;;;;;;15.60;100.00;100240.41;687393;28;829;-63
2023/07/27 00:17:26;;;;;;;5.18;2.97;;;;;;;15.58;100.00;100232.53;686587;28;1443;-63
2023/07/27 00:17:46;;;;;;;5.30;2.90;;;;;;;15.57;100.00;100236.09;688414;28;999;-62
2023/07/27 00:18:06;;;;;;;4.70;2.90;;;;;;;15.56;100.00;100241.41;687234;28;1484;-63
2023/07/27 00:18:27;;;;;;;5.27;3.00;;;;;;;15.56;100.00;100230.88;687663;28;944;-63
2023/07/27 00:18:47;;;;;;;4.97;2.90;;;;;;;15.55;100.00;100234.41;686302;28;4455;-63
2023/07/27 00:19:07;;;;;;;4.70;2.80;;;;;;;15.55;100.00;100235.28;684063;28;1514;-63
2023/07/27 00:19:28;;;;;;;6.40;2.90;;;;;;;15.54;100.00;100238.81;684839;28;1235;-63
2023/07/27 00:19:48;;;;;;;6.03;2.83;;;;;;;15.55;100.00;100235.28;685734;28;844;-63
2023/07/27 00:20:09;;;;;;;5.60;2.97;;;;;;;15.56;100.00;100231.75;684430;28;1430;-63
2023/07/27 00:20:32;;;;;;;5.90;3.10;;;;;;;15.56;100.00;100236.13;685141;28;983;-62
2023/07/27 00:20:53;;;;;;;4.80;2.83;;;;;;;15.53;100.00;100237.09;688166;28;1318;-62
2023/07/27 00:21:13;;;;;;;5.20;2.70;;;;;;;15.54;100.00;100230.91;687311;28;1968;-64
2023/07/27 00:21:34;;;;;;;4.90;2.80;;;;;;;15.54;100.00;100233.56;687037;28;837;-64
2023/07/27 00:21:54;;;;;;;5.93;3.10;;;;;;;15.53;100.00;100230.97;687283;28;4403;-63
2023/07/27 00:22:14;;;;;;;6.00;3.10;;;;;;;15.52;100.00;100230.13;687118;28;1418;-62
2023/07/27 00:22:35;;;;;;;5.00;2.90;;;;;;;15.51;100.00;100233.66;686659;28;1326;-63
2023/07/27 00:22:55;;;;;;;4.90;2.83;;;;;;;15.51;100.00;100233.66;687785;28;1163;-63
2023/07/27 00:23:16;;;;;;;4.63;2.70;;;;;;;15.49;100.00;100231.06;686946;28;1473;-63
2023/07/27 00:23:36;;;;;;;4.80;2.90;;;;;;;15.51;100.00;100228.38;687678;28;900;-63
2023/07/27 00:23:57;;;;;;;4.67;2.90;;;;;;;15.50;100.00;100231.94;688418;28;935;-63
2023/07/27 00:24:17;;;;;;;4.68;2.90;;;;;;;15.50;100.00;100232.78;686890;28;1446;-62
2023/07/27 00:24:37;;;;;;;4.63;2.67;;;;;;;15.50;100.00;100229.28;687353;28;1225;-63
2023/07/27 00:24:58;;;;;;;3.97;2.57;;;;;;;15.53;100.00;100234.44;687863;28;4405;-63
2023/07/27 00:25:18;;;;;;;4.57;2.85;;;;;;;15.54;100.00;100227.44;687328;28;1489;-63
2023/07/27 00:25:38;;;;;;;5.40;2.93;;;;;;;15.53;100.00;100225.69;687907;28;912;-62
2023/07/27 00:25:59;;;;;;;4.97;2.67;;;;;;;15.53;100.00;100228.34;688087;28;1535;-63
2023/07/27 00:26:19;;;;;;;5.47;3.07;;;;;;;15.53;100.00;100234.44;686690;28;1599;-63
2023/07/27 00:26:41;;;;;;;4.60;3.10;;;;;;;15.53;100.00;100231.81;687710;28;1343;-63
2023/07/27 00:27:02;;;;;;;4.78;2.70;;;;;;;15.52;100.00;100229.25;685525;28;1969;-63
2023/07/27 00:27:22;;;;;;;5.15;2.80;;;;;;;15.52;100.00;100229.25;684095;28;1475;-63
2023/07/27 00:27:42;;;;;;;4.23;2.73;;;;;;;15.52;100.00;100229.25;685044;28;913;-63
2023/07/27 00:28:03;;;;;;;4.80;2.75;;;;;;;15.50;100.00;100229.28;681360;28;4409;-63
2023/07/27 00:28:24;;;;;;;4.35;2.75;;;;;;;15.49;100.00;100223.19;681772;28;1537;-62
2023/07/27 00:28:44;;;;;;;4.23;2.67;;;;;;;15.53;100.00;100230.97;679072;29;1383;-63
2023/07/27 00:29:04;;;;;;;4.77;2.80;;;;;;;15.51;100.00;100223.13;680054;29;1398;-63
2023/07/27 00:29:25;;;;;;;4.60;2.90;;;;;;;15.50;100.00;100224.03;679155;29;2275;-63
2023/07/27 00:29:45;;;;;;;5.30;3.10;;;;;;;15.50;100.00;100221.38;680081;29;1406;-64
2023/07/27 00:30:06;;;;;;;6.07;2.95;;;;;;;15.51;100.00;100220.50;682354;28;1243;-63
2023/07/27 00:30:27;;;;;;;6.15;3.00;;;;;;;15.52;100.00;100224.84;685914;28;1169;-63
2023/07/27 00:30:52;;;;;;;4.97;2.90;;;;;;;15.52;100.00;100227.50;687698;28;4358;-63
2023/07/27 00:31:13;;;;;;;4.63;2.95;;;;;;;15.52;100.00;100218.69;684220;28;1449;-63
2023/07/27 00:31:34;;;;;;;5.00;3.10;;;;;;;15.52;100.00;100219.59;683287;28;1383;-61
2023/07/27 00:31:54;;;;;;;5.00;2.83;;;;;;;15.52;100.00;100218.69;683234;28;1353;-63
2023/07/27 00:32:14;;;;;;;4.80;2.70;;;;;;;15.52;100.00;100224.84;681120;28;1852;-63
2023/07/27 00:32:36;;;;;;;5.15;2.63;;;;;;;15.54;100.00;100216.91;680184;29;1452;-63
2023/07/27 00:32:57;;;;;;;4.75;2.90;;;;;;;15.53;100.00;100220.44;679434;29;1327;-63
2023/07/27 00:33:18;;;;;;;5.28;2.75;;;;;;;15.52;100.00;100219.59;679016;29;1561;-62
2023/07/27 00:33:38;;;;;;;4.57;2.83;;;;;;;15.53;100.00;100223.06;679462;29;853;-63
2023/07/27 00:33:59;;;;;;;5.50;3.07;;;;;;;15.53;100.00;100220.44;682203;28;4311;-62
2023/07/27 00:34:19;;;;;;;5.75;2.72;;;;;;;15.54;100.00;100217.75;682631;28;1419;-63
2023/07/27 00:34:39;;;;;;;4.80;2.73;;;;;;;15.54;100.00;100223.00;684743;28;1529;-63
2023/07/27 00:35:00;;;;;;;4.53;2.80;;;;;;;15.53;100.00;100215.16;684578;28;1159;-62
2023/07/27 00:35:20;;;;;;;4.93;2.88;;;;;;;15.52;100.00;100214.31;685047;28;1733;-62
2023/07/27 00:35:41;;;;;;;4.97;2.90;;;;;;;15.52;100.00;100222.22;684438;28;1368;-62
2023/07/27 00:36:01;;;;;;;5.50;2.80;;;;;;;15.50;100.00;100216.13;688000;28;1360;-62
2023/07/27 00:36:21;;;;;;;5.57;2.90;;;;;;;15.50;100.00;100216.13;685803;28;1417;-63
2023/07/27 00:36:42;;;;;;;5.38;3.00;;;;;;;15.49;100.00;100214.38;686775;28;968;-63
2023/07/27 00:37:03;;;;;;;4.53;2.97;;;;;;;15.52;100.00;100218.69;683555;28;4504;-63
2023/07/27 00:37:23;;;;;;;4.47;2.88;;;;;;;15.52;100.00;100214.31;683248;28;1468;-63
2023/07/27 00:37:44;;;;;;;5.30;2.80;;;;;;;15.52;100.00;100216.94;682568;28;1643;-63
2023/07/27 00:38:04;;;;;;;5.88;2.80;;;;;;;15.52;100.00;100219.59;683470;28;979;-62
2023/07/27 00:38:25;;;;;;;4.83;2.90;;;;;;;15.52;100.00;100219.59;680973;28;1561;-62
2023/07/27 00:38:45;;;;;;;4.95;2.95;;;;;;;15.54;100.00;100212.47;679009;29;1337;-63
2023/07/27 00:39:05;;;;;;;5.83;2.93;;;;;;;15.55;100.00;100216.84;677459;29;5576;-63
2023/07/27 00:39:26;;;;;;;4.88;2.85;;;;;;;15.58;100.00;100221.16;675031;29;1484;-63
2023/07/27 00:39:46;;;;;;;4.93;2.90;;;;;;;15.56;100.00;100218.56;679238;29;1021;-62
2023/07/27 00:40:08;;;;;;;4.07;2.50;;;;;;;15.55;100.00;100218.59;676631;28;5213;-62
2023/07/27 00:40:28;;;;;;;4.70;2.72;;;;;;;15.53;100.00;100210.75;681639;28;806;-63
2023/07/27 00:40:49;;;;;;;4.40;2.80;;;;;;;15.53;100.00;100218.66;680198;28;1368;-63
2023/07/27 00:41:10;;;;;;;5.00;3.07;;;;;;;15.53;100.00;100216.00;681683;28;2017;-63
2023/07/27 00:41:30;;;;;;;5.47;3.00;;;;;;;15.52;100.00;100214.31;679286;28;1150;-62
2023/07/27 00:41:51;;;;;;;5.20;3.00;;;;;;;15.52;100.00;100216.06;678697;29;948;-63
2023/07/27 00:42:12;;;;;;;4.65;2.78;;;;;;;15.50;100.00;100216.97;681741;28;1744;-63
2023/07/27 00:42:32;;;;;;;4.80;3.00;;;;;;;15.48;100.00;100217.97;679977;28;1232;-63
2023/07/27 00:42:52;;;;;;;4.95;3.00;;;;;;;15.49;100.00;100211.75;685000;28;4676;-63
2023/07/27 00:43:13;;;;;;;4.93;2.90;;;;;;;15.52;100.00;100211.69;684683;28;1611;-63
2023/07/27 00:43:33;;;;;;;5.17;2.93;;;;;;;15.53;100.00;100209.91;687618;28;916;-63
2023/07/27 00:43:53;;;;;;;6.30;3.00;;;;;;;15.53;100.00;100215.16;685041;28;845;-63
2023/07/27 00:44:14;;;;;;;5.00;3.00;;;;;;;15.50;100.00;100211.69;681744;28;1501;-63
2023/07/27 00:44:34;;;;;;;5.53;2.85;;;;;;;15.51;100.00;100212.59;679817;28;1403;-63
2023/07/27 00:44:55;;;;;;;4.60;2.70;;;;;;;15.50;100.00;100208.22;681346;28;1238;-63
2023/07/27 00:45:15;;;;;;;4.70;3.20;;;;;;;15.50;100.00;100210.84;681385;28;1629;-63
2023/07/27 00:45:35;;;;;;;4.50;2.80;;;;;;;15.48;100.00;100210.91;682037;28;1437;-63
2023/07/27 00:45:56;;;;;;;5.10;2.70;;;;;;;15.47;100.00;100205.69;685594;28;5264;-63
2023/07/27 00:46:17;;;;;;;5.50;2.88;;;;;;;15.47;100.00;100208.31;684689;28;1584;-64
2023/07/27 00:46:38;;;;;;;5.00;2.80;;;;;;;15.46;100.00;100211.88;681034;28;1220;-63
2023/07/27 00:46:59;;;;;;;4.75;2.70;;;;;;;15.47;100.00;100205.69;679412;29;1282;-63
2023/07/27 00:47:20;;;;;;;4.67;2.73;;;;;;;15.46;100.00;100203.97;678509;29;2014;-64
2023/07/27 00:47:40;;;;;;;5.27;2.90;;;;;;;15.47;100.00;100201.28;679970;29;1262;-64
2023/07/27 00:48:01;;;;;;;5.20;2.80;;;;;;;15.47;100.00;100201.28;679587;28;1132;-64
2023/07/27 00:48:21;;;;;;;4.85;2.63;;;;;;;15.47;100.00;100203.06;678310;29;1553;-64
2023/07/27 00:48:42;;;;;;;4.23;2.60;;;;;;;15.46;100.00;100202.19;677916;29;1166;-64
2023/07/27 00:49:07;;;;;;;4.40;2.90;;;;;;;15.47;100.00;100205.69;679602;29;4544;-63
2023/07/27 00:49:29;;;;;;;5.65;2.90;;;;;;;15.47;100.00;100196.00;682175;28;1481;-64
2023/07/27 00:49:49;;;;;;;5.43;2.67;;;;;;;15.54;100.00;100199.31;683067;28;1066;-64
2023/07/27 00:50:10;;;;;;;6.10;3.00;;;;;;;15.54;100.00;100199.31;683974;28;1537;-64
2023/07/27 00:50:32;;;;;;;6.68;3.45;;;;;;;15.53;100.00;100197.56;689660;28;1172;-63
2023/07/27 00:50:54;;;;;;;5.75;3.10;;;;;;;15.53;100.00;100205.47;689123;28;1330;-64
2023/07/27 00:51:16;;;;;;;4.68;2.70;;;;;;;15.52;100.00;100197.63;687402;28;1618;-63
2023/07/27 00:51:42;;;;;;;4.30;2.60;;;;;;;15.50;100.00;100203.81;687672;28;971;-63
2023/07/27 00:52:07;;;;;;;4.40;2.75;;;;;;;15.50;100.00;100200.31;682907;28;5296;-63
2023/07/27 00:52:27;;;;;;;4.85;2.83;;;;;;;15.49;100.00;100194.19;679535;28;2078;-63
2023/07/27 00:52:48;;;;;;;4.63;2.88;;;;;;;15.49;100.00;100199.47;681608;29;1426;-63
2023/07/27 00:53:08;;;;;;;4.70;2.90;;;;;;;15.49;100.00;100199.47;681436;28;1506;-63
2023/07/27 00:53:30;;;;;;;5.20;2.92;;;;;;;15.49;100.00;100193.31;683297;28;1047;-63
2023/07/27 00:53:51;;;;;;;5.63;3.03;;;;;;;15.47;100.00;100189.88;684753;28;1423;-63
2023/07/27 00:54:12;;;;;;;5.15;2.97;;;;;;;15.46;100.00;100193.44;682636;28;1781;-63
2023/07/27 00:54:34;;;;;;;6.05;3.30;;;;;;;15.47;100.00;100195.16;684725;28;928;-63
2023/07/27 00:54:56;;;;;;;5.90;3.10;;;;;;;15.45;100.00;100195.22;685185;28;4550;-63
2023/07/27 00:55:16;;;;;;;4.97;3.03;;;;;;;15.44;100.00;100197.91;681490;28;1625;-62
2023/07/27 00:55:37;;;;;;;4.57;2.90;;;;;;;15.46;100.00;100196.06;684647;28;818;-63
2023/07/27 00:55:59;;;;;;;5.40;2.90;;;;;;;15.45;100.00;100196.97;683626;28;779;-63
2023/07/27 00:56:20;;;;;;;5.47;3.15;;;;;;;15.45;100.00;100191.69;682064;28;1745;-63
2023/07/27 00:56:40;;;;;;;4.57;2.88;;;;;;;15.44;100.00;100190.00;681911;29;1341;-62
2023/07/27 00:57:01;;;;;;;5.03;2.70;;;;;;;15.44;100.00;100197.91;685062;28;1271;-63
2023/07/27 00:57:22;;;;;;;5.10;2.97;;;;;;;15.44;100.00;100190.00;683620;28;1604;-63
2023/07/27 00:57:43;;;;;;;5.72;2.85;;;;;;;15.44;100.00;100195.25;684069;28;845;-63
2023/07/27 00:58:03;;;;;;;4.40;2.63;;;;;;;15.43;100.00;100198.81;679945;28;4604;-63
2023/07/27 00:58:25;;;;;;;4.80;2.90;;;;;;;15.46;100.00;100190.78;678440;29;1522;-63
2023/07/27 00:58:47;;;;;;;5.30;3.30;;;;;;;15.46;100.00;100194.28;678716;29;1371;-63
2023/07/27 00:59:07;;;;;;;5.15;3.15;;;;;;;15.47;100.00;100195.16;680318;29;1282;-63
2023/07/27 00:59:28;;;;;;;4.47;2.88;;;;;;;15.49;100.00;100191.56;677507;29;1007;-63
2023/07/27 00:59:50;;;;;;;4.43;2.67;;;;;;;15.47;100.00;100192.53;679410;28;858;-63
2023/07/27 01:00:13;;;;;;;4.47;2.70;;;;;;;15.50;100.00;100190.63;682417;28;1629;-63
2023/07/27 01:00:34;;;;;;;5.03;2.67;;;;;;;15.52;100.00;100193.25;684951;28;1226;-63
2023/07/27 01:00:54;;;;;;;5.22;2.83;;;;;;;15.49;100.00;100199.47;686528;28;4592;-63
2023/07/27 01:01:16;;;;;;;5.50;2.83;;;;;;;15.48;100.00;100187.19;684236;28;1906;-63
2023/07/27 01:01:37;;;;;;;4.82;2.70;;;;;;;15.48;100.00;100189.00;683796;28;1230;-63
2023/07/27 01:01:59;;;;;;;4.55;2.90;;;;;;;15.45;100.00;100194.31;685346;28;832;-63
2023/07/27 01:02:19;;;;;;;4.97;3.03;;;;;;;15.45;100.00;100191.69;680187;28;1709;-63
2023/07/27 01:02:40;;;;;;;5.60;3.00;;;;;;;15.46;100.00;100190.78;678688;29;1453;-63
2023/07/27 01:03:03;;;;;;;6.03;2.92;;;;;;;15.52;100.00;100193.25;681723;29;992;-63
2023/07/27 01:03:23;;;;;;;4.90;2.80;;;;;;;15.49;100.00;100188.94;683156;28;1544;-63
2023/07/27 01:03:44;;;;;;;4.78;2.90;;;;;;;15.48;100.00;100189.00;684668;28;877;-63
2023/07/27 01:04:04;;;;;;;5.80;3.20;;;;;;;15.46;100.00;100188.16;684578;28;4555;-64
2023/07/27 01:04:25;;;;;;;5.77;3.13;;;;;;;15.45;100.00;100189.06;686785;28;1580;-63
2023/07/27 01:04:46;;;;;;;4.83;2.80;;;;;;;15.50;100.00;100184.50;682435;28;908;-64
2023/07/27 01:05:09;;;;;;;4.60;3.03;;;;;;;15.50;100.00;100184.50;679322;28;1905;-63
2023/07/27 01:05:29;;;;;;;4.28;2.55;;;;;;;15.47;100.00;100176.72;682232;29;1462;-63
2023/07/27 01:05:51;;;;;;;5.07;3.10;;;;;;;15.46;100.00;100188.16;681079;28;1234;-63
2023/07/27 01:06:11;;;;;;;4.55;3.05;;;;;;;15.43;100.00;100181.22;680282;28;1522;-62
2023/07/27 01:06:33;;;;;;;4.47;2.95;;;;;;;15.40;100.00;100188.38;680870;29;946;-63
2023/07/27 01:06:55;;;;;;;4.60;2.92;;;;;;;15.38;100.00;100179.63;679115;29;4378;-62
2023/07/27 01:07:15;;;;;;;5.00;2.80;;;;;;;15.37;100.00;100183.19;681003;28;1579;-63
2023/07/27 01:07:35;;;;;;;5.68;2.80;;;;;;;15.35;100.00;100179.75;680014;28;1556;-63
2023/07/27 01:07:56;;;;;;;5.37;3.00;;;;;;;15.36;100.00;100184.13;678603;29;1332;-64
2023/07/27 01:08:16;;;;;;;4.70;2.88;;;;;;;15.35;100.00;100185.00;680006;29;893;-64
2023/07/27 01:08:37;;;;;;;5.33;2.77;;;;;;;15.35;100.00;100179.75;681923;29;837;-63
2023/07/27 01:08:57;;;;;;;6.93;3.20;;;;;;;15.36;100.00;100184.97;679831;29;1585;-62
2023/07/27 01:09:18;;;;;;;6.45;3.10;;;;;;;15.35;100.00;100190.28;678069;29;1279;-64
2023/07/27 01:09:38;;;;;;;5.20;3.00;;;;;;;15.36;100.00;100181.47;683135;28;991;-63
2023/07/27 01:09:59;;;;;;;4.87;3.10;;;;;;;15.36;100.00;100184.13;684357;28;4528;-63
2023/07/27 01:10:30;;;;;;;5.20;2.88;;;;;;;15.36;100.00;100184.13;684343;28;1643;-63
2023/07/27 01:10:57;;;;;;;4.72;2.95;;;;;;;15.34;100.00;100184.16;685347;28;1234;-63
2023/07/27 01:11:23;;;;;;;5.50;3.00;;;;;;;15.42;100.00;100178.63;687770;28;1450;-63
2023/07/27 01:11:51;;;;;;;5.38;2.90;;;;;;;15.48;100.00;100176.66;685248;28;1512;-63
2023/07/27 01:12:15;;;;;;;4.97;2.90;;;;;;;15.46;100.00;100175.00;684136;28;1640;-63
2023/07/27 01:13:03;;;;;;;5.47;3.20;;;;;;;15.43;100.00;100169.81;684727;28;3149;-62
2023/07/27 01:13:40;;;;;;;4.60;2.85;;;;;;;15.37;100.00;100175.28;682341;28;5318;-62
2023/07/27 01:14:04;;;;;;;5.40;3.10;;;;;;;15.33;100.00;100167.47;687254;28;801;-63
2023/07/27 01:14:48;;;;;;;4.82;2.70;;;;;;;15.33;100.00;100177.16;686325;28;2172;-63
2023/07/27 01:15:14;;;;;;;5.65;3.08;;;;;;;15.36;100.00;100173.56;684707;28;928;-63
2023/07/27 01:15:42;;;;;;;4.90;3.03;;;;;;;15.35;100.00;100169.22;687016;28;941;-63
2023/07/27 01:16:09;;;;;;;4.90;2.90;;;;;;;15.34;100.00;100171.00;682738;28;4704;-63
2023/07/27 01:16:44;;;;;;;6.22;3.10;;;;;;;15.32;100.00;100171.03;682951;28;1453;-63
2023/07/27 01:17:10;;;;;;;5.22;2.90;;;;;;;15.31;100.00;100164.06;683646;28;980;-63
2023/07/27 01:17:43;;;;;;;5.57;3.15;;;;;;;15.30;100.00;100164.97;681912;28;1465;-63
2023/07/27 01:18:36;;;;;;;5.93;2.88;;;;;;;15.31;100.00;100171.06;681215;29;993;-62
2023/07/27 01:19:02;;;;;;;6.50;3.20;;;;;;;15.35;100.00;100171.84;686393;28;4409;-63
2023/07/27 01:20:04;;;;;;;5.20;3.10;;;;;;;15.32;100.00;100173.66;686721;28;1559;-63
2023/07/27 01:20:30;;;;;;;5.35;2.83;;;;;;;15.29;100.00;100171.13;686189;28;1633;-63
2023/07/27 01:21:01;;;;;;;5.00;2.95;;;;;;;15.28;100.00;100164.13;687231;28;952;-63
2023/07/27 01:21:36;;;;;;;4.28;2.72;;;;;;;15.26;100.00;100170.38;684670;28;1892;-63
2023/07/27 01:22:07;;;;;;;4.65;3.00;;;;;;;15.25;100.00;100169.50;683405;28;4314;-62
2023/07/27 01:22:30;;;;;;;5.75;2.80;;;;;;;15.24;100.00;100165.13;684533;28;1589;-63
2023/07/27 01:23:29;;;;;;;5.68;2.90;;;;;;;15.24;100.00;100166.91;686472;28;1185;-62
2023/07/27 01:24:24;;;;;;;4.88;2.80;;;;;;;15.24;100.00;100166.91;681807;29;1200;-63
2023/07/27 01:24:59;;;;;;;5.78;3.20;;;;;;;15.23;100.00;100171.34;673159;29;1129;-63
2023/07/27 01:25:19;;;;;;;5.97;3.13;;;;;;;15.25;100.00;100166.03;671954;29;5374;-63
2023/07/27 01:25:58;;;;;;;5.53;3.10;;;;;;;15.23;100.00;100168.69;667697;29;966;-62
2023/07/27 01:26:30;;;;;;;6.65;3.00;;;;;;;15.23;100.00;100165.19;667960;29;1718;-63
2023/07/27 01:27:11;;;;;;;5.55;2.70;;;;;;;15.22;100.00;100164.34;670986;29;1278;-63
2023/07/27 01:27:38;;;;;;;6.28;3.10;;;;;;;15.21;100.00;100170.50;678376;28;1570;-64
2023/07/27 01:28:20;;;;;;;5.82;3.15;;;;;;;15.20;100.00;100170.56;684363;28;4658;-62
2023/07/27 01:29:08;;;;;;;5.18;3.10;;;;;;;15.20;100.00;100163.50;686476;28;865;-64
2023/07/27 01:29:53;;;;;;;5.35;3.10;;;;;;;15.20;100.00;100166.16;687128;28;1656;-63
2023/07/27 01:30:27;;;;;;;4.75;2.90;;;;;;;15.18;100.00;100167.97;686232;28;1500;-63
2023/07/27 01:30:53;;;;;;;4.88;2.90;;;;;;;15.19;100.00;100164.44;686849;28;4443;-65
2023/07/27 01:31:21;;;;;;;5.28;3.08;;;;;;;15.19;100.00;100163.56;683398;28;1516;-63
2023/07/27 01:31:44;;;;;;;6.38;3.08;;;;;;;15.18;100.00;100165.34;684037;28;976;-63
2023/07/27 01:32:09;;;;;;;5.88;3.15;;;;;;;15.18;100.00;100162.72;680623;29;2202;-63
2023/07/27 01:32:35;;;;;;;4.60;2.90;;;;;;;15.18;100.00;100165.34;680199;29;1442;-63
2023/07/27 01:33:04;;;;;;;4.65;2.78;;;;;;;15.18;100.00;100162.72;684306;28;1032;-63
2023/07/27 01:33:30;;;;;;;5.10;2.83;;;;;;;15.18;100.00;100167.13;684322;28;1446;-63
2023/07/27 01:33:58;;;;;;;4.68;2.67;;;;;;;15.16;100.00;100161.91;684414;28;4357;-63
2023/07/27 01:34:32;;;;;;;4.60;2.80;;;;;;;15.17;100.00;100163.63;686905;28;1745;-63
2023/07/27 01:34:57;;;;;;;4.70;3.00;;;;;;;15.16;100.00;100159.28;686518;28;961;-63
2023/07/27 01:35:19;;;;;;;5.50;2.85;;;;;;;15.16;100.00;100159.28;683014;28;1780;-63
2023/07/27 01:35:48;;;;;;;5.40;3.00;;;;;;;15.15;100.00;100163.66;682240;28;1772;-63
2023/07/27 01:36:20;;;;;;;5.03;3.05;;;;;;;15.17;100.00;100160.13;681903;28;1846;-63
2023/07/27 01:36:43;;;;;;;5.80;3.20;;;;;;;15.15;100.00;100158.41;679676;29;948;-63
2023/07/27 01:37:05;;;;;;;4.43;2.80;;;;;;;15.13;100.00;100159.34;681750;28;4500;-62
2023/07/27 01:37:28;;;;;;;4.25;2.83;;;;;;;15.14;100.00;100156.66;681721;28;1498;-63
2023/07/27 01:37:52;;;;;;;5.35;2.80;;;;;;;15.16;100.00;100156.66;687362;28;936;-63
2023/07/27 01:38:13;;;;;;;6.00;2.90;;;;;;;15.16;100.00;100159.28;684203;28;1555;-64
2023/07/27 01:38:37;;;;;;;5.28;2.97;;;;;;;15.16;100.00;100156.66;686793;28;896;-63
2023/07/27 01:39:03;;;;;;;5.55;3.60;;;;;;;15.16;100.00;100156.66;687419;28;5336;-64
2023/07/27 01:39:26;;;;;;;4.88;2.85;;;;;;;15.18;100.00;100161.88;685329;28;1553;-63
2023/07/27 01:39:51;;;;;;;5.32;2.88;;;;;;;15.19;100.00;100161.81;686467;28;4702;-62
2023/07/27 01:40:13;;;;;;;5.20;3.00;;;;;;;15.20;100.00;100160.88;683443;28;1609;-63
2023/07/27 01:40:34;;;;;;;5.85;2.88;;;;;;;15.21;100.00;100161.75;682692;28;996;-63
2023/07/27 01:40:56;;;;;;;5.90;2.80;;;;;;;15.21;100.00;100156.50;686677;28;1346;-63
2023/07/27 01:41:17;;;;;;;5.20;2.80;;;;;;;15.20;100.00;100158.25;684838;28;1918;-63
2023/07/27 01:41:41;;;;;;;4.70;2.88;;;;;;;15.20;100.00;100157.41;681435;28;1174;-63
2023/07/27 01:42:03;;;;;;;5.38;3.00;;;;;;;15.18;100.00;100156.59;682672;28;1712;-63
2023/07/27 01:42:26;;;;;;;5.80;3.10;;;;;;;15.17;100.00;100158.34;683320;28;1552;-63
2023/07/27 01:42:47;;;;;;;5.00;2.92;;;;;;;15.16;100.00;100154.03;684193;28;4372;-63
2023/07/27 01:43:10;;;;;;;5.30;2.83;;;;;;;15.15;100.00;100155.78;682234;28;1001;-63
2023/07/27 01:43:31;;;;;;;4.63;2.75;;;;;;;15.16;100.00;100159.28;685226;28;1219;-63
2023/07/27 01:43:52;;;;;;;5.10;2.70;;;;;;;15.15;100.00;100155.78;685963;28;983;-62
2023/07/27 01:44:13;;;;;;;5.63;2.80;;;;;;;15.17;100.00;100157.50;685324;28;1599;-64
2023/07/27 01:44:35;;;;;;;5.30;2.80;;;;;;;15.18;100.00;100156.59;683210;28;1409;-63
2023/07/27 01:44:57;;;;;;;4.22;2.70;;;;;;;15.18;100.00;100157.44;683130;28;1159;-63
2023/07/27 01:45:18;;;;;;;4.55;2.83;;;;;;;15.17;100.00;100155.72;681143;28;1541;-63
2023/07/27 01:45:40;;;;;;;5.03;2.80;;;;;;;15.17;100.00;100153.09;681933;28;851;-63
2023/07/27 01:46:01;;;;;;;5.47;3.05;;;;;;;15.16;100.00;100154.03;684348;28;4395;-62
2023/07/27 01:46:24;;;;;;;5.30;2.97;;;;;;;15.14;100.00;100148.78;680274;28;1531;-63
2023/07/27 01:46:45;;;;;;;4.78;2.90;;;;;;;15.14;100.00;100155.81;677055;29;1342;-63
2023/07/27 01:47:08;;;;;;;4.55;2.85;;;;;;;15.14;100.00;100155.81;680629;29;2012;-62
2023/07/27 01:47:30;;;;;;;5.30;2.80;;;;;;;15.14;100.00;100151.41;682526;28;1444;-63
2023/07/27 01:47:53;;;;;;;5.15;2.70;;;;;;;15.15;100.00;100157.56;681949;28;1179;-63
2023/07/27 01:48:16;;;;;;;5.10;2.70;;;;;;;15.14;100.00;100151.41;681016;28;1649;-63
2023/07/27 01:48:40;;;;;;;6.28;2.88;;;;;;;15.14;100.00;100156.66;685698;28;932;-63